Time;durP1;ratioP1;P1;durP2;ratioP2;P2;SDS_P1;SDS_P2;PMS_P1;PMS_P2;Temp;Humidity;BMP_temperature;BMP_pressure;BME280_temperature;BME280_humidity;BME280_pressure;Samples;Min_cycle;Max_cycle;Signal;HPM_P1;HPM_P2
2022/07/04 00:02:15;;;;;;;1.37;1.17;;;24.10;46.10;;;;;;20746;6843;117378;-90
2022/07/04 00:04:41;;;;;;;1.50;1.40;;;23.80;46.00;;;;;;20732;6843;117724;-90
2022/07/04 00:07:07;;;;;;;1.50;1.37;;;23.80;46.00;;;;;;20751;6843;117372;-90
2022/07/04 00:09:32;;;;;;;1.98;1.40;;;23.70;46.10;;;;;;20689;6843;120495;-89
2022/07/04 00:11:59;;;;;;;3.33;1.50;;;23.70;46.20;;;;;;20728;6843;117862;-90
2022/07/04 00:14:25;;;;;;;1.70;1.60;;;23.60;46.10;;;;;;20531;6843;283476;-90
2022/07/04 00:16:51;;;;;;;1.63;1.50;;;23.90;45.60;;;;;;20753;6843;119750;-90
2022/07/04 00:19:17;;;;;;;4.40;1.67;;;23.90;45.40;;;;;;20750;6843;118340;-89
2022/07/04 00:21:43;;;;;;;6.13;1.83;;;23.80;45.60;;;;;;20739;6843;117178;-90
2022/07/04 00:24:08;;;;;;;1.95;1.55;;;23.60;45.80;;;;;;20533;6843;277984;-90
2022/07/04 00:26:34;;;;;;;2.35;1.70;;;23.90;45.50;;;;;;20753;6843;117191;-90
2022/07/04 00:29:01;;;;;;;1.67;1.50;;;23.90;45.30;;;;;;20549;6843;279606;-91
2022/07/04 00:31:26;;;;;;;1.70;1.60;;;24.10;45.20;;;;;;20748;6843;116224;-89
2022/07/04 00:33:52;;;;;;;1.95;1.50;;;24.00;45.20;;;;;;20526;6843;309398;-90
2022/07/04 00:36:17;;;;;;;1.20;1.20;;;24.20;45.00;;;;;;20758;6844;123544;-89
2022/07/04 00:38:43;;;;;;;2.37;1.70;;;24.20;45.00;;;;;;20541;6844;307954;-89
2022/07/04 00:41:08;;;;;;;1.93;1.83;;;24.30;45.20;;;;;;20750;6844;117827;-90
2022/07/04 00:43:34;;;;;;;1.80;1.70;;;24.30;45.60;;;;;;20753;6844;117355;-90
2022/07/04 00:46:00;;;;;;;1.97;1.63;;;24.20;47.20;;;;;;20514;6844;291729;-90
2022/07/04 00:48:26;;;;;;;1.90;1.65;;;24.10;47.10;;;;;;20534;6844;319885;-90
2022/07/04 00:50:51;;;;;;;2.50;1.92;;;24.40;46.90;;;;;;20745;6844;117373;-90
2022/07/04 00:53:17;;;;;;;1.97;1.77;;;24.30;46.60;;;;;;20697;6844;117226;-90
2022/07/04 00:55:42;;;;;;;2.70;1.80;;;24.00;47.50;;;;;;20730;6844;119793;-90
2022/07/04 00:58:08;;;;;;;1.77;1.67;;;23.70;47.10;;;;;;20495;6844;280248;-90
2022/07/04 01:00:34;;;;;;;4.10;1.90;;;23.90;47.30;;;;;;20527;6844;308944;-90
2022/07/04 01:02:59;;;;;;;1.35;1.35;;;24.20;46.90;;;;;;20728;6844;117050;-90
2022/07/04 01:05:25;;;;;;;1.67;1.57;;;24.10;46.60;;;;;;20749;6844;117172;-90
2022/07/04 01:07:50;;;;;;;3.28;1.60;;;23.80;46.30;;;;;;20716;6844;128228;-90
2022/07/04 01:10:16;;;;;;;3.23;1.80;;;23.60;46.30;;;;;;20742;6842;118289;-90
2022/07/04 01:12:41;;;;;;;1.70;1.60;;;23.50;46.60;;;;;;20539;6843;278571;-89
2022/07/04 01:15:07;;;;;;;2.17;1.60;;;23.70;45.80;;;;;;20535;6843;338004;-90
2022/07/04 01:17:33;;;;;;;1.87;1.77;;;24.10;45.60;;;;;;20734;6843;118359;-90
2022/07/04 01:20:00;;;;;;;2.40;1.87;;;24.10;45.50;;;;;;20732;6843;122942;-90
2022/07/04 01:22:26;;;;;;;2.20;1.50;;;23.80;46.20;;;;;;20734;6843;117464;-90
2022/07/04 01:24:51;;;;;;;1.87;1.60;;;23.80;46.20;;;;;;20545;6843;278905;-90
2022/07/04 01:27:18;;;;;;;1.70;1.60;;;24.30;46.40;;;;;;20537;6843;308099;-89
2022/07/04 01:29:43;;;;;;;1.73;1.60;;;24.40;45.80;;;;;;20532;6843;278513;-90
2022/07/04 01:32:09;;;;;;;1.77;1.67;;;24.60;45.60;;;;;;20726;6843;121748;-90
2022/07/04 01:34:35;;;;;;;2.30;1.90;;;24.50;45.70;;;;;;20527;6843;307965;-90
2022/07/04 01:37:00;;;;;;;1.80;1.70;;;24.60;46.10;;;;;;20745;6843;122086;-90
2022/07/04 01:39:29;;;;;;;2.50;1.80;;;24.50;46.20;;;;;;20539;6843;278652;-90
2022/07/04 01:41:54;;;;;;;2.10;1.70;;;24.50;46.20;;;;;;20708;6843;117239;-90
2022/07/04 01:44:21;;;;;;;1.87;1.77;;;24.30;46.20;;;;;;20519;6843;337474;-91
2022/07/04 01:46:48;;;;;;;2.30;1.80;;;24.40;46.10;;;;;;20531;6844;313268;-90
2022/07/04 01:49:14;;;;;;;2.57;2.17;;;24.60;45.60;;;;;;20532;6844;307637;-90
2022/07/04 01:51:48;;;;;;;2.70;1.60;;;24.90;45.30;;;;;;20532;6844;323503;-90
2022/07/04 01:54:14;;;;;;;4.50;1.73;;;24.90;45.30;;;;;;20751;6844;117576;-90
2022/07/04 01:56:40;;;;;;;1.60;1.50;;;24.60;45.30;;;;;;20756;6844;121226;-90
2022/07/04 01:59:05;;;;;;;1.57;1.50;;;24.30;45.60;;;;;;20736;6844;119378;-90
2022/07/04 02:01:33;;;;;;;1.73;1.62;;;24.20;45.80;;;;;;20519;6844;290556;-90
2022/07/04 02:03:59;;;;;;;1.80;1.70;;;24.10;45.50;;;;;;20730;6844;123237;-90
2022/07/04 02:06:24;;;;;;;2.40;1.63;;;24.10;45.50;;;;;;20733;6844;117858;-90
2022/07/04 02:14:22;;;;;;;2.63;1.70;;;23.60;46.10;;;;;;20530;6844;307721;-88
2022/07/04 02:16:48;;;;;;;4.10;1.83;;;23.90;46.30;;;;;;20743;6844;117387;-88
2022/07/04 02:19:13;;;;;;;2.63;1.80;;;23.90;46.10;;;;;;20523;6844;300740;-89
2022/07/04 02:21:39;;;;;;;2.07;1.80;;;24.10;45.90;;;;;;20529;6842;306054;-89
2022/07/04 02:24:04;;;;;;;2.00;1.60;;;24.40;45.80;;;;;;20510;6843;310212;-89
2022/07/04 02:26:31;;;;;;;2.10;1.60;;;24.60;45.40;;;;;;20538;6843;281531;-89
2022/07/04 02:28:57;;;;;;;1.87;1.70;;;24.80;45.20;;;;;;20532;6843;295493;-89
2022/07/04 02:31:23;;;;;;;2.20;1.83;;;24.90;44.70;;;;;;20539;6843;278510;-89
2022/07/04 02:33:49;;;;;;;2.28;1.90;;;24.90;45.00;;;;;;20530;6843;277663;-90
2022/07/04 02:36:16;;;;;;;2.03;1.93;;;24.90;44.40;;;;;;20537;6843;308429;-88
2022/07/04 02:38:42;;;;;;;1.60;1.50;;;24.60;44.60;;;;;;20761;6843;117410;-90
2022/07/04 02:41:08;;;;;;;2.93;1.93;;;24.60;44.60;;;;;;20753;6843;117586;-89
2022/07/04 02:43:33;;;;;;;2.37;1.65;;;24.10;45.10;;;;;;20545;6843;333568;-88
2022/07/04 02:45:59;;;;;;;2.60;1.50;;;24.20;45.30;;;;;;20741;6843;123162;-89
2022/07/04 02:48:26;;;;;;;3.20;1.70;;;24.00;45.40;;;;;;20543;6843;278545;-90
2022/07/04 02:50:51;;;;;;;2.73;1.60;;;24.00;45.50;;;;;;20736;6843;117581;-91
2022/07/04 02:53:17;;;;;;;4.60;1.97;;;23.90;45.70;;;;;;20768;6843;118886;-88
2022/07/04 02:55:42;;;;;;;2.57;1.50;;;23.50;45.90;;;;;;20750;6843;120102;-89
2022/07/04 02:58:08;;;;;;;3.50;1.97;;;23.30;46.40;;;;;;20734;6843;122100;-88
2022/07/04 03:00:34;;;;;;;2.05;1.87;;;23.10;46.80;;;;;;20749;6844;117385;-88
2022/07/04 03:02:59;;;;;;;2.42;1.67;;;22.90;47.00;;;;;;20813;6844;116282;-90
2022/07/04 03:05:25;;;;;;;1.60;1.50;;;22.80;47.40;;;;;;20801;6844;116224;-89
2022/07/04 03:07:50;;;;;;;2.37;2.00;;;22.60;47.60;;;;;;20581;6844;277639;-87
2022/07/04 03:10:16;;;;;;;1.98;1.80;;;22.90;47.90;;;;;;20581;6844;339326;-89
2022/07/04 03:12:42;;;;;;;4.00;2.00;;;23.20;47.30;;;;;;20801;6844;116323;-89
2022/07/04 03:15:09;;;;;;;3.60;1.97;;;23.20;47.30;;;;;;20791;6844;117520;-90
2022/07/04 03:17:35;;;;;;;6.07;1.85;;;23.00;47.50;;;;;;20586;6844;337016;-88
2022/07/04 03:20:00;;;;;;;2.00;1.87;;;23.10;47.60;;;;;;20796;6844;117469;-90
2022/07/04 03:22:26;;;;;;;2.93;2.00;;;23.00;47.40;;;;;;20820;6844;116875;-88
2022/07/04 03:24:52;;;;;;;3.17;1.70;;;22.60;48.10;;;;;;20787;6844;117987;-88
2022/07/04 03:27:18;;;;;;;2.90;1.90;;;22.60;47.80;;;;;;20790;6844;120210;-87
2022/07/04 03:29:45;;;;;;;2.17;1.87;;;22.50;48.00;;;;;;20592;6844;338147;-86
2022/07/04 03:32:10;;;;;;;1.90;1.73;;;22.70;48.50;;;;;;20789;6844;117353;-88
2022/07/04 03:34:36;;;;;;;2.57;1.70;;;22.70;47.90;;;;;;20753;6842;117516;-88
2022/07/04 03:37:02;;;;;;;2.00;1.90;;;22.60;48.10;;;;;;20520;6843;307550;-88
2022/07/04 03:39:27;;;;;;;2.37;2.17;;;22.80;48.00;;;;;;20745;6843;116483;-87
2022/07/04 03:41:54;;;;;;;4.57;2.00;;;22.80;47.90;;;;;;20725;6843;117549;-88
2022/07/04 03:44:20;;;;;;;1.47;1.37;;;22.60;48.40;;;;;;20743;6843;117954;-86
2022/07/04 03:46:47;;;;;;;2.13;1.90;;;22.50;48.30;;;;;;20534;6843;281190;-87
2022/07/04 03:49:12;;;;;;;2.27;2.10;;;22.70;48.30;;;;;;20525;6843;307525;-87
2022/07/04 03:51:38;;;;;;;2.72;2.00;;;23.00;47.80;;;;;;20518;6843;337198;-87
2022/07/04 03:54:03;;;;;;;3.23;2.00;;;23.30;47.20;;;;;;20513;6843;430415;-84
2022/07/04 03:56:30;;;;;;;1.90;1.80;;;23.40;46.60;;;;;;20543;6843;309631;-88
2022/07/04 03:58:54;;;;;;;2.20;1.93;;;23.60;46.60;;;;;;20751;6843;117664;-88
2022/07/04 04:01:20;;;;;;;2.10;1.90;;;23.40;46.80;;;;;;20542;6843;277862;-89
2022/07/04 04:06:33;;;;;;;2.15;2.00;;;23.20;47.30;;;;;;20529;6843;337138;-89
2022/07/04 04:08:58;;;;;;;3.37;2.03;;;23.20;46.70;;;;;;20682;6843;118959;-89
2022/07/04 04:11:27;;;;;;;2.33;1.80;;;23.00;46.70;;;;;;20544;6844;337092;-89
2022/07/04 04:13:53;;;;;;;2.60;1.90;;;23.10;46.80;;;;;;20667;6844;119287;-89
2022/07/04 04:16:18;;;;;;;1.90;1.80;;;23.00;47.00;;;;;;20546;6844;309922;-89
2022/07/04 04:18:45;;;;;;;2.20;2.00;;;23.10;47.20;;;;;;20748;6844;122547;-89
2022/07/04 04:21:11;;;;;;;2.28;2.03;;;22.90;47.00;;;;;;20516;6844;309619;-89
2022/07/04 04:23:37;;;;;;;2.37;1.97;;;23.00;47.10;;;;;;20535;6844;310427;-88
2022/07/04 04:26:03;;;;;;;2.80;1.80;;;23.20;46.70;;;;;;20687;6844;117361;-89
2022/07/04 04:28:29;;;;;;;2.97;2.40;;;23.00;46.80;;;;;;20546;6844;278469;-89
2022/07/04 04:30:55;;;;;;;2.00;1.90;;;23.10;47.20;;;;;;20749;6844;117669;-90
2022/07/04 04:33:20;;;;;;;3.00;2.13;;;22.90;47.20;;;;;;20747;6844;122268;-91
2022/07/04 04:35:46;;;;;;;2.07;1.97;;;22.60;47.50;;;;;;20498;6844;308899;-88
2022/07/04 04:38:11;;;;;;;4.93;2.20;;;22.80;47.70;;;;;;20754;6844;118054;-88
2022/07/04 04:40:37;;;;;;;2.15;1.87;;;22.70;47.60;;;;;;20745;6844;117165;-88
2022/07/04 04:43:02;;;;;;;3.62;2.10;;;22.50;47.80;;;;;;20531;6844;310309;-88
2022/07/04 04:45:28;;;;;;;2.85;1.90;;;22.70;47.80;;;;;;20747;6842;117602;-87
2022/07/04 04:47:54;;;;;;;2.22;1.98;;;22.70;47.80;;;;;;20737;6843;117643;-88
2022/07/04 04:50:20;;;;;;;2.07;1.93;;;22.40;48.60;;;;;;20757;6843;120439;-88
2022/07/04 04:52:45;;;;;;;1.93;1.83;;;22.40;48.20;;;;;;20759;6843;118211;-89
2022/07/04 04:55:13;;;;;;;2.93;2.30;;;22.70;48.00;;;;;;20559;6843;307489;-88
2022/07/04 04:57:39;;;;;;;1.90;1.80;;;22.70;47.70;;;;;;20713;6843;121218;-88
2022/07/04 05:00:08;;;;;;;2.57;2.20;;;22.70;47.70;;;;;;20734;6843;117851;-88
2022/07/04 05:02:34;;;;;;;3.20;1.80;;;22.60;47.80;;;;;;20754;6843;117415;-87
2022/07/04 05:04:59;;;;;;;1.97;1.87;;;22.40;48.00;;;;;;20758;6843;117171;-89
2022/07/04 05:07:25;;;;;;;3.23;2.10;;;22.40;48.20;;;;;;20549;6843;280517;-86
2022/07/04 05:09:58;;;;;;;2.22;1.95;;;22.70;47.80;;;;;;20739;6843;119714;-87
2022/07/04 05:12:18;;;;;;;4.17;2.20;;;22.80;47.60;;;;;;20501;6843;310125;-88
2022/07/04 05:14:44;;;;;;;4.12;1.90;;;23.10;47.40;;;;;;20526;6843;338897;-88
2022/07/04 05:17:10;;;;;;;2.57;1.70;;;23.40;47.00;;;;;;20728;6843;118255;-88
2022/07/04 05:19:36;;;;;;;2.17;1.97;;;23.40;46.60;;;;;;20753;6843;121502;-86
2022/07/04 05:22:02;;;;;;;1.73;1.63;;;23.00;47.00;;;;;;20725;6843;117608;-89
2022/07/04 05:24:28;;;;;;;2.00;1.90;;;23.00;47.00;;;;;;20756;6844;117383;-88
2022/07/04 05:26:53;;;;;;;2.87;1.90;;;22.90;47.20;;;;;;20538;6844;310294;-88
2022/07/04 05:29:19;;;;;;;2.70;2.10;;;23.20;46.80;;;;;;20548;6844;278766;-86
2022/07/04 05:31:44;;;;;;;2.50;2.00;;;23.50;46.20;;;;;;20538;6844;307590;-86
2022/07/04 05:34:10;;;;;;;1.97;1.83;;;23.80;45.70;;;;;;20362;6844;327814;-87
2022/07/04 05:36:36;;;;;;;2.67;1.90;;;24.00;45.10;;;;;;20544;6844;280896;-88
2022/07/04 05:39:02;;;;;;;5.77;1.80;;;24.10;45.10;;;;;;20760;6844;122216;-88
2022/07/04 05:41:31;;;;;;;3.03;2.13;;;23.80;45.30;;;;;;20745;6844;117694;-89
2022/07/04 05:43:57;;;;;;;2.93;2.10;;;23.80;45.30;;;;;;20738;6844;123098;-89
2022/07/04 05:46:23;;;;;;;2.97;2.03;;;23.80;45.10;;;;;;20543;6844;308879;-86
2022/07/04 05:48:48;;;;;;;1.93;1.80;;;23.80;45.00;;;;;;20757;6844;117217;-86
2022/07/04 05:51:14;;;;;;;3.77;1.87;;;23.90;45.10;;;;;;20759;6844;119431;-88
2022/07/04 05:53:40;;;;;;;1.97;1.80;;;23.80;45.30;;;;;;20756;6844;117599;-83
2022/07/04 05:56:05;;;;;;;3.40;1.90;;;23.60;45.40;;;;;;20741;6844;117841;-88
2022/07/04 05:58:31;;;;;;;2.72;2.00;;;23.60;45.40;;;;;;20543;6842;308416;-88
2022/07/04 06:00:56;;;;;;;2.80;2.00;;;23.90;44.10;;;;;;20540;6843;337115;-88
2022/07/04 06:03:22;;;;;;;1.83;1.73;;;24.30;44.60;;;;;;20761;6843;117380;-88
2022/07/04 06:05:49;;;;;;;3.00;2.10;;;24.40;44.30;;;;;;20516;6843;280829;-89
2022/07/04 06:08:15;;;;;;;4.93;2.45;;;24.60;43.60;;;;;;20560;6843;337155;-88
2022/07/04 06:10:40;;;;;;;2.97;2.08;;;25.00;43.10;;;;;;20501;6843;296761;-87
2022/07/04 06:13:07;;;;;;;4.30;2.20;;;25.30;42.10;;;;;;20720;6843;118313;-88
2022/07/04 06:15:32;;;;;;;3.37;2.00;;;25.20;42.40;;;;;;20513;6843;278449;-88
2022/07/04 06:17:59;;;;;;;2.37;2.17;;;25.60;42.60;;;;;;20496;6843;307290;-89
2022/07/04 06:20:24;;;;;;;2.80;2.10;;;25.50;42.50;;;;;;20513;6843;278622;-88
2022/07/04 06:22:50;;;;;;;4.05;2.08;;;25.80;41.90;;;;;;20521;6843;280338;-88
2022/07/04 06:25:15;;;;;;;2.03;1.83;;;25.90;42.00;;;;;;20751;6843;123399;-88
2022/07/04 06:27:44;;;;;;;2.13;1.90;;;25.70;42.00;;;;;;20530;6843;278436;-88
2022/07/04 06:30:10;;;;;;;2.17;1.90;;;25.50;41.20;;;;;;20726;6843;119310;-88
2022/07/04 06:32:46;;;;;;;2.70;2.00;;;25.50;41.30;;;;;;20538;6843;336707;-87
2022/07/04 06:37:59;;;;;;;3.77;2.10;;;25.40;41.70;;;;;;20514;6844;308012;-87
2022/07/04 06:40:25;;;;;;;2.73;1.90;;;25.40;40.90;;;;;;20763;6844;117471;-87
2022/07/04 06:42:51;;;;;;;3.20;2.03;;;25.30;43.00;;;;;;20554;6844;336256;-88
2022/07/04 06:45:18;;;;;;;2.53;1.93;;;25.20;42.20;;;;;;20761;6844;117425;-86
2022/07/04 06:47:44;;;;;;;2.33;2.00;;;25.10;42.30;;;;;;20759;6844;117643;-87
2022/07/04 06:50:09;;;;;;;2.45;2.20;;;24.90;42.80;;;;;;20532;6844;307950;-87
2022/07/04 06:52:35;;;;;;;2.53;2.33;;;25.00;43.30;;;;;;20756;6844;122856;-89
2022/07/04 06:55:38;;;;;;;2.03;1.92;;;25.00;43.40;;;;;;20767;6844;124112;-87
2022/07/04 06:58:14;;;;;;;4.17;2.23;;;24.80;43.80;;;;;;20828;6759;117205;-87
2022/07/04 07:00:51;;;;;;;2.93;1.93;;;24.50;44.20;;;;;;20860;6661;116346;-89
2022/07/04 07:03:27;;;;;;;1.90;1.80;;;24.50;44.10;;;;;;20974;6744;67622;-88
2022/07/04 07:06:02;;;;;;;2.47;2.23;;;24.40;44.40;;;;;;20891;6774;119219;-88
2022/07/04 07:08:37;;;;;;;2.37;1.90;;;24.40;44.60;;;;;;20908;6758;115837;-89
2022/07/04 07:11:13;;;;;;;2.40;2.03;;;24.40;44.30;;;;;;20734;6724;306508;-89
2022/07/04 07:13:49;;;;;;;4.57;2.00;;;24.70;43.50;;;;;;20905;6753;121438;-88
2022/07/04 07:16:25;;;;;;;2.37;1.80;;;24.80;43.50;;;;;;20895;6758;117678;-88
2022/07/04 07:19:01;;;;;;;4.87;2.33;;;24.80;43.90;;;;;;20830;6787;116830;-88
2022/07/04 07:21:37;;;;;;;4.87;2.30;;;24.70;44.20;;;;;;20678;6656;300913;-88
2022/07/04 07:24:13;;;;;;;2.30;2.10;;;25.10;44.30;;;;;;20898;6740;119927;-88
2022/07/04 07:26:49;;;;;;;2.00;1.90;;;25.20;43.80;;;;;;20673;6749;300867;-88
2022/07/04 07:29:24;;;;;;;2.63;1.77;;;25.50;42.80;;;;;;20833;6749;117257;-88
2022/07/04 07:32:01;;;;;;;3.77;2.40;;;25.50;42.60;;;;;;20500;6751;312456;-88
2022/07/04 07:34:38;;;;;;;4.07;2.07;;;25.70;42.40;;;;;;20841;6760;117527;-88
2022/07/04 07:37:14;;;;;;;3.43;2.47;;;25.70;41.80;;;;;;20834;6762;117673;-87
2022/07/04 07:39:49;;;;;;;2.93;2.07;;;25.40;42.20;;;;;;20898;6760;117496;-88
2022/07/04 07:42:25;;;;;;;3.80;2.00;;;25.30;42.90;;;;;;20797;6744;117396;-88
2022/07/04 07:45:01;;;;;;;4.62;2.10;;;25.80;42.70;;;;;;20732;6729;308037;-88
2022/07/04 07:47:36;;;;;;;3.17;1.83;;;25.80;42.70;;;;;;20726;6731;302153;-88
2022/07/04 07:50:12;;;;;;;2.50;1.90;;;26.40;41.50;;;;;;20758;6714;305036;-88
2022/07/04 07:52:48;;;;;;;2.00;1.90;;;26.80;40.30;;;;;;20552;6714;309501;-88
2022/07/04 07:55:23;;;;;;;2.50;2.13;;;27.10;39.10;;;;;;20955;6734;117508;-87
2022/07/04 07:57:59;;;;;;;2.67;2.03;;;27.00;39.70;;;;;;20911;6729;122254;-88
2022/07/04 08:00:35;;;;;;;3.57;2.10;;;26.90;39.80;;;;;;20714;6731;306055;-88
2022/07/04 08:06:06;;;;;;;2.33;2.10;;;26.90;40.00;;;;;;20894;6738;117114;-88
2022/07/04 08:08:42;;;;;;;3.90;2.30;;;26.70;40.30;;;;;;20875;6750;117091;-88
2022/07/04 08:11:17;;;;;;;3.47;2.27;;;26.60;40.50;;;;;;20573;6771;313548;-88
2022/07/04 08:13:53;;;;;;;2.23;2.00;;;26.80;39.50;;;;;;20926;6730;117392;-88
2022/07/04 08:16:28;;;;;;;2.27;1.83;;;26.80;40.00;;;;;;20954;6730;117242;-88
2022/07/04 08:19:04;;;;;;;3.73;2.00;;;26.70;40.10;;;;;;20952;6730;117422;-88
2022/07/04 08:21:40;;;;;;;3.10;2.30;;;26.50;40.40;;;;;;20880;6730;117197;-88
2022/07/04 08:24:15;;;;;;;3.70;2.10;;;26.40;40.30;;;;;;20674;6744;276378;-88
2022/07/04 08:26:51;;;;;;;2.57;2.07;;;26.60;39.30;;;;;;20732;6730;308212;-88
2022/07/04 08:29:30;;;;;;;2.75;2.35;;;27.00;39.10;;;;;;20733;6730;306550;-88
2022/07/04 08:32:12;;;;;;;;;;;;;;;;;;;;;
2022/07/04 08:34:38;;;;;;;2.40;2.23;;;27.20;39.80;;;;;;20944;6730;120946;-88
2022/07/04 08:37:15;;;;;;;3.40;2.20;;;26.90;40.10;;;;;;20731;6730;308079;-87
2022/07/04 08:39:49;;;;;;;2.37;2.15;;;27.10;41.00;;;;;;20697;6786;301634;-87
2022/07/04 08:42:28;;;;;;;2.63;2.43;;;27.40;40.50;;;;;;20799;6730;117585;-87
2022/07/04 08:45:00;;;;;;;2.37;2.03;;;27.20;39.90;;;;;;20948;6730;116871;-88
2022/07/04 08:47:38;;;;;;;2.00;1.90;;;26.90;40.50;;;;;;20949;6730;116054;-88
2022/07/04 08:50:12;;;;;;;2.30;2.10;;;26.80;40.80;;;;;;20926;6730;118627;-88
2022/07/04 08:52:47;;;;;;;2.77;2.20;;;26.70;41.20;;;;;;20569;6730;278863;-88
2022/07/04 08:58:31;;;;;;;2.67;2.27;;;27.50;39.50;;;;;;20752;6730;278383;-88
2022/07/04 09:01:07;;;;;;;2.42;2.22;;;28.30;39.60;;;;;;20686;6730;339648;-88
2022/07/04 09:03:44;;;;;;;2.07;1.97;;;28.30;39.10;;;;;;20904;6745;117031;-88
2022/07/04 09:06:19;;;;;;;2.43;2.33;;;28.30;39.30;;;;;;20906;6745;67202;-88
2022/07/04 09:08:55;;;;;;;2.73;2.40;;;28.10;39.70;;;;;;20707;6742;276464;-88
2022/07/04 09:11:30;;;;;;;2.17;2.03;;;28.30;40.00;;;;;;20797;6801;117182;-88
2022/07/04 09:14:06;;;;;;;3.60;2.20;;;28.50;39.70;;;;;;20665;6745;306516;-88
2022/07/04 09:16:51;;;;;;;2.63;2.13;;;28.80;39.70;;;;;;20886;6747;117445;-86
2022/07/04 09:19:20;;;;;;;3.90;2.30;;;28.90;39.70;;;;;;20687;6745;276662;-88
2022/07/04 09:21:56;;;;;;;2.53;2.33;;;29.40;38.10;;;;;;20540;6745;279668;-88
2022/07/04 09:24:48;;;;;;;3.83;2.43;;;29.40;38.10;;;;;;20660;6747;308648;-89
2022/07/04 09:27:31;;;;;;;3.75;2.10;;;29.70;38.10;;;;;;20692;6747;306095;-88
2022/07/04 09:30:06;;;;;;;2.87;2.60;;;30.00;37.20;;;;;;20613;6748;278513;-88
2022/07/04 09:32:45;;;;;;;3.03;2.50;;;30.20;36.10;;;;;;20665;6751;117369;-88
2022/07/04 09:35:21;;;;;;;3.90;2.43;;;29.80;36.90;;;;;;20882;6744;117040;-89
2022/07/04 09:38:00;;;;;;;5.40;2.13;;;29.80;36.90;;;;;;20854;6742;117610;-88
2022/07/04 09:40:32;;;;;;;3.97;2.00;;;29.80;37.40;;;;;;20836;6764;117624;-90
2022/07/04 09:43:11;;;;;;;3.13;2.30;;;29.70;37.80;;;;;;20803;6778;117580;-88
2022/07/04 09:45:59;;;;;;;2.73;2.50;;;29.50;38.30;;;;;;20830;6766;117125;-88
2022/07/04 09:48:48;;;;;;;2.78;2.40;;;29.50;37.60;;;;;;20671;6751;310459;-89
2022/07/04 09:51:38;;;;;;;2.73;2.20;;;29.70;38.30;;;;;;20545;6748;307713;-87
2022/07/04 09:54:21;;;;;;;2.50;2.30;;;30.20;37.40;;;;;;20734;6781;116575;-87
2022/07/04 09:56:56;;;;;;;3.13;2.60;;;30.20;37.00;;;;;;20614;6782;276631;-84
2022/07/04 09:59:32;;;;;;;4.00;2.50;;;30.40;36.30;;;;;;20663;6767;279329;-85
2022/07/04 10:02:13;;;;;;;4.67;2.67;;;30.60;35.80;;;;;;20557;6767;311644;-86
2022/07/04 10:04:46;;;;;;;2.80;2.60;;;30.60;35.90;;;;;;20904;6748;117430;-86
2022/07/04 10:07:35;;;;;;;2.90;2.30;;;30.50;36.20;;;;;;20901;6733;66015;-85
2022/07/04 10:10:21;;;;;;;2.33;2.13;;;30.40;36.30;;;;;;20869;6733;116825;-86
2022/07/04 10:12:55;;;;;;;2.93;2.37;;;30.30;37.00;;;;;;20077;6876;311845;-86
2022/07/04 10:15:31;;;;;;;2.83;2.50;;;30.60;37.30;;;;;;20672;6748;308365;-87
2022/07/04 10:18:07;;;;;;;2.60;2.30;;;30.90;36.20;;;;;;20657;6748;277233;-86
2022/07/04 10:20:43;;;;;;;2.47;2.30;;;31.20;36.20;;;;;;20657;6748;306793;-87
2022/07/04 10:23:19;;;;;;;2.97;2.50;;;31.30;35.10;;;;;;20856;6757;116998;-87
2022/07/04 10:25:54;;;;;;;2.80;2.60;;;31.20;35.70;;;;;;20629;6757;340459;-88
2022/07/04 10:28:30;;;;;;;3.23;2.27;;;31.10;35.50;;;;;;20855;6757;117960;-88
2022/07/04 10:31:05;;;;;;;7.73;2.50;;;31.00;36.10;;;;;;20826;6757;117517;-87
2022/07/04 10:33:41;;;;;;;3.83;2.13;;;30.90;35.60;;;;;;20915;6738;116957;-88
2022/07/04 10:36:16;;;;;;;2.90;2.40;;;30.60;35.90;;;;;;20690;6737;284929;-91
2022/07/04 10:38:56;;;;;;;2.97;2.60;;;30.80;35.00;;;;;;20707;6738;277060;-88
2022/07/04 10:41:32;;;;;;;4.10;2.20;;;30.80;35.00;;;;;;20626;6738;280687;-86
2022/07/04 10:44:13;;;;;;;3.53;2.20;;;30.90;35.30;;;;;;20637;6748;306201;-86
2022/07/04 10:46:43;;;;;;;4.33;2.20;;;31.00;35.20;;;;;;20650;6748;308131;-86
2022/07/04 10:49:18;;;;;;;2.47;2.05;;;31.20;34.30;;;;;;20684;6748;307652;-85
2022/07/04 10:52:12;;;;;;;2.20;2.00;;;31.30;32.90;;;;;;20622;6748;278189;-87
2022/07/04 10:54:48;;;;;;;2.10;1.90;;;31.00;34.00;;;;;;20881;6756;122503;-88
2022/07/04 10:57:23;;;;;;;2.60;2.30;;;31.00;34.00;;;;;;20896;6756;117795;-88
2022/07/04 11:00:00;;;;;;;3.00;2.17;;;30.80;34.10;;;;;;20902;6756;117316;-91
2022/07/04 11:02:38;;;;;;;2.20;2.00;;;30.50;34.60;;;;;;20753;6759;117490;-89
2022/07/04 11:05:14;;;;;;;2.43;2.10;;;30.30;35.00;;;;;;20934;6804;116843;-85
2022/07/04 11:07:51;;;;;;;4.47;2.47;;;30.20;35.20;;;;;;20883;6763;116459;-83
2022/07/04 11:10:28;;;;;;;2.50;2.40;;;30.00;35.40;;;;;;20893;6763;116518;-83
2022/07/04 11:13:07;;;;;;;2.60;2.00;;;29.90;35.70;;;;;;20893;6763;116131;-84
2022/07/04 11:15:46;;;;;;;2.87;2.07;;;29.90;35.70;;;;;;20867;6763;119060;-83
2022/07/04 11:18:23;;;;;;;2.03;1.87;;;30.00;35.50;;;;;;20900;6763;116317;-85
2022/07/04 11:20:58;;;;;;;1.87;1.77;;;30.00;35.20;;;;;;20880;6763;68105;-84
2022/07/04 11:23:34;;;;;;;4.10;2.12;;;30.10;35.70;;;;;;20683;6763;336687;-85
2022/07/04 11:26:09;;;;;;;2.83;1.80;;;30.40;34.80;;;;;;20874;6767;117000;-82
2022/07/04 11:28:45;;;;;;;1.63;1.53;;;30.50;34.50;;;;;;20887;6767;116141;-82
2022/07/04 11:31:20;;;;;;;1.90;1.80;;;30.30;34.50;;;;;;20859;6759;116152;-84
2022/07/04 11:33:56;;;;;;;2.27;2.00;;;30.10;34.50;;;;;;20896;6744;117390;-86
2022/07/04 11:36:32;;;;;;;2.23;2.00;;;29.90;35.00;;;;;;20906;6759;116103;-84
2022/07/04 11:39:07;;;;;;;3.63;1.90;;;29.70;35.20;;;;;;20702;6759;310401;-87
2022/07/04 11:47:37;;;;;;;4.10;2.10;;;30.30;34.10;;;;;;20576;6797;301016;-89
2022/07/04 11:50:14;;;;;;;2.30;2.10;;;30.60;33.90;;;;;;20768;6781;117056;-89
2022/07/04 11:52:53;;;;;;;1.80;1.70;;;30.70;34.00;;;;;;20639;6776;118335;-87
2022/07/04 11:55:29;;;;;;;2.10;2.00;;;30.60;34.40;;;;;;20593;6779;306911;-87
2022/07/04 11:58:05;;;;;;;2.20;2.00;;;30.80;34.60;;;;;;20741;6785;117168;-88
2022/07/04 12:00:40;;;;;;;2.17;1.97;;;30.80;33.90;;;;;;20703;6801;117713;-87
2022/07/04 12:03:16;;;;;;;2.78;2.10;;;30.70;33.80;;;;;;20629;6770;305768;-87
2022/07/04 12:06:05;;;;;;;2.10;2.00;;;30.80;34.40;;;;;;20771;6750;117812;-87
2022/07/04 12:08:41;;;;;;;2.73;2.13;;;30.70;34.40;;;;;;20499;6808;279305;-88
2022/07/04 12:11:17;;;;;;;6.22;2.15;;;30.90;34.60;;;;;;20537;6769;341723;-86
2022/07/04 12:13:53;;;;;;;5.25;2.10;;;31.10;33.80;;;;;;20568;6755;338164;-83
2022/07/04 12:16:28;;;;;;;3.77;1.97;;;31.30;33.50;;;;;;20631;6755;307276;-84
2022/07/04 12:19:10;;;;;;;4.37;2.10;;;31.40;33.40;;;;;;20801;6771;117884;-83
2022/07/04 12:21:46;;;;;;;2.20;2.00;;;31.30;33.60;;;;;;20476;6771;311372;-84
2022/07/04 12:24:21;;;;;;;2.70;2.00;;;31.30;33.10;;;;;;20571;6769;294003;-84
2022/07/04 12:26:58;;;;;;;3.30;2.00;;;31.40;33.40;;;;;;20553;6778;308983;-84
2022/07/04 12:29:33;;;;;;;1.73;1.60;;;31.40;33.00;;;;;;20830;6772;117646;-84
2022/07/04 12:32:13;;;;;;;2.20;1.97;;;31.10;33.70;;;;;;20553;6740;309095;-83
2022/07/04 12:34:46;;;;;;;1.93;1.80;;;31.00;33.60;;;;;;20893;6741;117391;-84
2022/07/04 12:37:22;;;;;;;2.37;2.00;;;30.90;33.50;;;;;;20830;6760;117609;-84
2022/07/04 12:39:58;;;;;;;2.43;2.20;;;30.50;33.70;;;;;;20819;6758;117208;-83
2022/07/04 12:42:34;;;;;;;3.83;2.20;;;30.50;33.90;;;;;;20762;6740;117159;-84
2022/07/04 12:45:09;;;;;;;2.60;2.17;;;30.30;34.20;;;;;;20879;6740;118122;-83
2022/07/04 12:47:48;;;;;;;2.17;1.97;;;30.30;34.50;;;;;;20633;6739;308038;-84
2022/07/04 12:50:27;;;;;;;4.07;1.73;;;30.50;33.90;;;;;;20778;6776;119380;-83
2022/07/04 12:53:05;;;;;;;2.28;2.00;;;30.60;34.50;;;;;;20350;6848;309730;-86
2022/07/04 12:55:40;;;;;;;4.80;2.27;;;30.50;34.40;;;;;;20615;6778;306865;-85
2022/07/04 12:58:16;;;;;;;4.97;2.07;;;30.80;33.90;;;;;;20515;6789;306244;-86
2022/07/04 13:00:52;;;;;;;2.40;2.00;;;31.10;33.50;;;;;;20534;6777;280304;-85
2022/07/04 13:03:28;;;;;;;2.57;2.00;;;31.00;33.40;;;;;;20768;6777;117122;-84
2022/07/04 13:06:03;;;;;;;3.53;2.17;;;30.90;33.90;;;;;;20681;6795;117851;-87
2022/07/04 13:08:39;;;;;;;2.23;2.13;;;30.60;34.10;;;;;;20837;6753;117754;-87
2022/07/04 13:14:10;;;;;;;2.27;2.00;;;29.80;34.40;;;;;;20809;6750;119300;-87
2022/07/04 13:16:46;;;;;;;2.40;2.10;;;29.50;35.30;;;;;;20907;6751;116019;-88
2022/07/04 13:19:21;;;;;;;3.57;2.10;;;29.40;35.70;;;;;;20821;6769;117564;-88
2022/07/04 13:21:57;;;;;;;2.10;2.00;;;29.30;36.00;;;;;;20521;6773;309063;-85
2022/07/04 13:24:34;;;;;;;3.50;2.20;;;30.10;35.10;;;;;;20625;6754;310582;-87